Time;durP1;ratioP1;P1;durP2;ratioP2;P2;SDS_P1;SDS_P2;PMS_P1;PMS_P2;Temp;Humidity;BMP_temperature;BMP_pressure;BME280_temperature;BME280_humidity;BME280_pressure;Samples;Min_cycle;Max_cycle;Signal;HPM_P1;HPM_P2
2022/08/09 00:01:49;;;;;;;7.28;4.85;;;;;;;26.14;90.19;100244.63;5084685;28;20190;-77
2022/08/09 00:04:17;;;;;;;8.65;4.50;;;;;;;26.07;90.62;100247.63;5089789;28;20202;-76
2022/08/09 00:06:44;;;;;;;7.00;4.32;;;;;;;26.00;90.81;100244.41;5085324;28;20191;-78
2022/08/09 00:09:14;;;;;;;8.75;4.65;;;;;;;25.97;90.87;100252.47;5034258;28;20205;-78
2022/08/09 00:11:41;;;;;;;6.63;4.28;;;;;;;25.56;90.32;100184.44;5069809;28;20210;-77
2022/08/09 00:14:08;;;;;;;4.65;4.15;;;;;;;26.02;90.45;100247.84;5064085;28;20206;-77
2022/08/09 00:16:35;;;;;;;4.47;4.07;;;;;;;25.97;89.67;100257.78;5084040;28;20229;-77
2022/08/09 00:19:02;;;;;;;9.05;4.68;;;;;;;25.80;89.20;100214.31;5093954;28;20194;-77
2022/08/09 00:21:29;;;;;;;6.72;4.47;;;;;;;25.85;88.51;100223.81;5089539;28;20209;-77
2022/08/09 00:23:57;;;;;;;5.07;3.83;;;;;;;25.99;88.40;100244.44;5074456;28;20216;-79
2022/08/09 00:26:26;;;;;;;4.95;4.30;;;;;;;25.98;88.85;100235.63;5074918;28;20697;-78
2022/08/09 00:28:53;;;;;;;6.78;3.95;;;;;;;25.97;89.16;100252.47;5073506;28;20199;-77
2022/08/09 00:31:21;;;;;;;5.57;4.25;;;;;;;25.88;88.64;100258.22;5073693;28;20256;-78
2022/08/09 00:33:48;;;;;;;7.75;3.90;;;;;;;25.74;89.34;100239.38;5073495;28;20264;-77
2022/08/09 00:36:15;;;;;;;5.18;3.92;;;;;;;25.69;89.77;100251.13;5073723;28;20231;-76
2022/08/09 00:38:42;;;;;;;4.82;4.38;;;;;;;25.77;89.71;100255.19;5073151;28;20223;-76
2022/08/09 00:41:08;;;;;;;9.15;4.45;;;;;;;25.29;89.40;100172.34;5078266;28;20202;-76
2022/08/09 00:43:39;;;;;;;7.47;3.97;;;;;;;25.75;89.60;100251.75;5057314;28;20203;-77
2022/08/09 00:46:07;;;;;;;4.50;4.10;;;;;;;25.72;90.22;100262.47;5082171;28;20206;-78
2022/08/09 00:48:34;;;;;;;4.88;4.18;;;;;;;25.48;90.42;100221.91;5079842;28;20561;-77
2022/08/09 00:51:03;;;;;;;4.72;4.30;;;;;;;25.70;90.96;100256.38;5091694;28;20202;-77
2022/08/09 00:53:30;;;;;;;4.55;4.15;;;;;;;25.65;91.90;100258.38;5073641;28;20191;-78
2022/08/09 00:55:57;;;;;;;6.70;4.85;;;;;;;25.60;93.12;100253.28;5073276;28;20191;-78
2022/08/09 00:58:24;;;;;;;4.22;3.88;;;;;;;25.49;93.39;100244.00;5072914;28;20222;-77
2022/08/09 01:00:55;;;;;;;6.43;4.35;;;;;;;25.68;92.72;100250.28;5083129;28;20197;-77
2022/08/09 01:03:32;;;;;;;6.28;4.00;;;;;;;25.72;92.47;100257.16;5092938;28;20205;-77
2022/08/09 01:06:04;;;;;;;4.90;4.47;;;;;;;25.66;93.61;100252.13;5023149;28;20190;-76
2022/08/09 01:08:42;;;;;;;7.53;4.60;;;;;;;25.64;93.89;100259.31;5036576;28;20198;-78
2022/08/09 01:11:18;;;;;;;5.13;4.68;;;;;;;25.68;94.20;100257.41;5051036;28;20194;-77
2022/08/09 01:13:54;;;;;;;4.82;4.40;;;;;;;25.54;95.18;100248.22;5071818;28;20198;-77
2022/08/09 01:16:26;;;;;;;5.63;5.00;;;;;;;25.56;94.97;100243.72;5075298;28;20258;-77
2022/08/09 01:18:58;;;;;;;5.55;4.78;;;;;;;25.61;95.57;100262.13;5080712;28;20292;-77
2022/08/09 01:21:43;;;;;;;8.40;5.13;;;;;;;25.70;95.24;100255.50;5055529;28;20207;-78
2022/08/09 01:24:20;;;;;;;5.50;4.18;;;;;;;25.57;96.48;100253.41;5052311;28;20249;-77
2022/08/09 01:27:11;;;;;;;5.88;4.70;;;;;;;25.40;97.41;100239.94;5078341;28;20202;-77
2022/08/09 01:29:42;;;;;;;4.78;4.38;;;;;;;25.27;100.00;100249.38;5016409;28;20197;-78
2022/08/09 01:32:11;;;;;;;7.65;4.63;;;;;;;25.35;100.00;100257.88;5000708;28;20201;-78
2022/08/09 01:34:42;;;;;;;6.28;5.05;;;;;;;25.15;100.00;100232.19;5018779;28;20204;-78
2022/08/09 01:37:11;;;;;;;5.13;4.63;;;;;;;25.09;100.00;100220.97;5029059;28;20228;-77
2022/08/09 01:39:40;;;;;;;5.00;4.22;;;;;;;25.31;100.00;100252.78;5029254;28;20289;-78
2022/08/09 01:42:09;;;;;;;5.85;4.80;;;;;;;25.28;100.00;100247.59;5010973;28;20635;-77
2022/08/09 01:44:38;;;;;;;7.38;4.00;;;;;;;25.29;100.00;100249.34;5010002;28;20212;-77
2022/08/09 01:47:07;;;;;;;4.57;4.28;;;;;;;25.06;100.00;100221.09;5016709;28;20680;-77
2022/08/09 01:49:37;;;;;;;9.45;4.80;;;;;;;25.35;100.00;100249.06;5011109;28;20197;-78
2022/08/09 01:52:07;;;;;;;5.40;4.35;;;;;;;25.41;100.00;100248.78;5010012;28;20193;-77
2022/08/09 01:54:42;;;;;;;8.05;4.25;;;;;;;25.51;100.00;100250.13;5009472;28;20200;-78
2022/08/09 01:57:14;;;;;;;6.38;4.63;;;;;;;25.51;99.21;100232.41;5009627;28;20616;-77
2022/08/09 01:59:45;;;;;;;5.95;4.38;;;;;;;25.52;100.00;100243.91;5015428;28;20208;-78
2022/08/09 02:02:15;;;;;;;5.65;4.53;;;;;;;25.42;100.00;100240.78;5009676;28;20208;-77
2022/08/09 02:04:43;;;;;;;10.55;4.82;;;;;;;25.31;100.00;100205.84;5009853;28;20247;-78
2022/08/09 02:07:17;;;;;;;4.70;4.18;;;;;;;25.53;100.00;100246.50;5074421;28;20201;-78
2022/08/09 02:09:48;;;;;;;6.03;4.45;;;;;;;25.32;100.00;100242.09;5091912;28;20685;-77
2022/08/09 02:12:21;;;;;;;8.75;4.88;;;;;;;25.04;100.00;100199.09;5062483;28;20207;-76
2022/08/09 02:14:51;;;;;;;7.07;5.07;;;;;;;25.33;100.00;100241.16;5071140;28;20226;-76
2022/08/09 02:17:21;;;;;;;7.13;4.80;;;;;;;25.32;100.00;100234.13;5024924;28;20234;-78
2022/08/09 02:19:48;;;;;;;5.38;4.80;;;;;;;24.86;100.00;100160.06;5070108;28;20202;-78
2022/08/09 02:22:20;;;;;;;8.93;4.80;;;;;;;25.37;100.00;100241.88;5071316;28;20195;-77
2022/08/09 02:24:50;;;;;;;6.60;4.85;;;;;;;25.38;100.00;100240.97;5080201;28;20662;-78
2022/08/09 02:27:23;;;;;;;5.88;4.97;;;;;;;25.41;100.00;100236.38;5066621;28;20198;-79
2022/08/09 02:29:53;;;;;;;5.22;4.60;;;;;;;25.31;100.00;100252.78;5085406;28;20205;-78
2022/08/09 02:32:23;;;;;;;7.47;4.75;;;;;;;25.19;100.00;100227.59;5086479;28;20202;-77
2022/08/09 02:35:00;;;;;;;7.82;4.63;;;;;;;25.36;100.00;100237.53;5070985;28;20203;-77
2022/08/09 02:37:29;;;;;;;5.32;4.68;;;;;;;25.40;100.00;100241.78;5070011;28;20617;-78
2022/08/09 02:40:01;;;;;;;5.15;4.75;;;;;;;25.38;100.00;100248.91;5084683;28;20744;-78
2022/08/09 02:42:33;;;;;;;5.68;5.18;;;;;;;25.27;100.00;100243.19;5050719;28;20196;-78
2022/08/09 02:45:04;;;;;;;7.05;4.90;;;;;;;25.31;100.00;100250.13;5078926;28;20210;-78
2022/08/09 02:47:33;;;;;;;38.15;5.57;;;;;;;25.25;100.00;100245.06;5077994;28;20206;-77
2022/08/09 02:50:06;;;;;;;5.20;4.70;;;;;;;25.15;100.00;100242.78;5087089;28;20571;-77
2022/08/09 02:52:38;;;;;;;7.55;5.28;;;;;;;25.13;100.00;100244.66;5077790;28;20701;-77
2022/08/09 02:55:07;;;;;;;5.72;5.25;;;;;;;25.17;100.00;100248.91;5070902;28;20264;-76
2022/08/09 02:57:37;;;;;;;5.40;4.95;;;;;;;25.09;100.00;100242.19;5049428;28;20221;-76
2022/08/09 03:00:07;;;;;;;6.28;5.43;;;;;;;24.90;100.00;100225.34;5054459;28;20206;-77
2022/08/09 03:02:35;;;;;;;8.13;4.95;;;;;;;25.09;100.00;100247.50;5070636;28;20569;-78
2022/08/09 03:05:03;;;;;;;5.85;5.30;;;;;;;25.14;100.00;100245.53;5074109;28;20584;-78
2022/08/09 03:07:31;;;;;;;6.38;5.00;;;;;;;25.13;100.00;100244.66;5070712;28;20213;-76
2022/08/09 03:09:59;;;;;;;8.27;5.07;;;;;;;25.06;100.00;100223.75;5063015;28;20210;-77
2022/08/09 03:12:27;;;;;;;6.25;5.43;;;;;;;25.10;100.00;100241.28;5089922;28;20191;-77
2022/08/09 03:14:57;;;;;;;5.80;5.30;;;;;;;25.21;100.00;100243.47;5090565;28;20198;-78
2022/08/09 03:17:25;;;;;;;6.10;5.50;;;;;;;25.10;100.00;100242.13;5074747;28;20690;-76
2022/08/09 03:19:53;;;;;;;11.10;5.80;;;;;;;25.12;100.00;100245.56;5073645;28;20202;-77
2022/08/09 03:22:20;;;;;;;6.32;5.32;;;;;;;25.15;100.00;100250.75;5080861;28;20195;-77
2022/08/09 03:24:47;;;;;;;5.70;5.20;;;;;;;24.99;100.00;100227.59;5087780;28;20205;-78
2022/08/09 03:27:15;;;;;;;5.72;5.22;;;;;;;25.22;100.00;100255.81;5084099;28;20194;-77
2022/08/09 03:29:44;;;;;;;6.05;5.30;;;;;;;25.24;100.00;100259.25;5088800;28;20626;-77
2022/08/09 03:32:13;;;;;;;6.60;5.28;;;;;;;25.22;100.00;100253.16;5073020;28;20652;-78
2022/08/09 03:34:40;;;;;;;8.57;5.30;;;;;;;25.23;100.00;100258.41;5070645;28;20207;-78
2022/08/09 03:37:07;;;;;;;5.68;5.20;;;;;;;25.35;100.00;100257.03;5069963;28;20222;-77
2022/08/09 03:39:34;;;;;;;8.57;4.95;;;;;;;25.37;100.00;100268.44;5067371;28;20222;-76
2022/08/09 03:42:01;;;;;;;6.15;5.63;;;;;;;25.29;100.00;100260.81;5078621;28;20576;-78
2022/08/09 03:44:28;;;;;;;6.82;5.28;;;;;;;25.41;100.00;100273.53;5089689;28;20205;-76
2022/08/09 03:46:55;;;;;;;6.55;5.53;;;;;;;25.36;100.00;100250.78;5077487;28;20203;-79
2022/08/09 03:49:26;;;;;;;7.13;4.90;;;;;;;25.61;100.00;100240.88;5036334;28;20197;-79
2022/08/09 03:51:57;;;;;;;5.57;5.07;;;;;;;26.08;100.00;100266.16;5076900;28;20213;-77
2022/08/09 03:54:26;;;;;;;5.50;5.00;;;;;;;26.47;100.00;100278.59;5073038;28;20199;-80
2022/08/09 03:56:54;;;;;;;5.60;5.10;;;;;;;26.43;100.00;100288.47;5073342;28;20198;-76
2022/08/09 03:59:20;;;;;;;7.30;5.32;;;;;;;26.56;100.00;100286.97;5073481;28;20599;-76
2022/08/09 04:01:49;;;;;;;7.22;5.38;;;;;;;26.54;100.00;100291.50;5076409;28;20263;-78
2022/08/09 04:04:17;;;;;;;5.57;5.10;;;;;;;26.68;99.69;100301.50;5074110;28;20191;-76
2022/08/09 04:06:45;;;;;;;6.10;5.50;;;;;;;26.87;98.44;100296.19;5074025;28;20198;-76
2022/08/09 04:09:12;;;;;;;8.23;5.40;;;;;;;26.85;96.91;100285.63;5073468;28;20652;-77
2022/08/09 04:11:58;;;;;;;14.55;5.90;;;;;;;26.85;100.00;100300.72;5074268;28;20209;-77
2022/08/09 04:14:25;;;;;;;7.85;5.97;;;;;;;26.90;100.00;100304.88;5055755;28;20207;-76
2022/08/09 04:16:52;;;;;;;5.38;4.88;;;;;;;27.02;100.00;100314.94;5074500;28;20206;-76
2022/08/09 04:19:19;;;;;;;8.18;5.18;;;;;;;27.54;94.31;100301.69;5056858;28;20308;-75
2022/08/09 04:21:47;;;;;;;9.07;6.03;;;;;;;27.97;92.67;100305.66;5080975;28;20202;-76
2022/08/09 04:24:14;;;;;;;12.13;6.50;;;;;;;28.06;91.05;100290.03;5054621;28;20192;-71
2022/08/09 04:26:41;;;;;;;7.07;5.85;;;;;;;28.62;87.54;100310.13;5036782;28;20187;-74
2022/08/09 04:29:08;;;;;;;7.45;5.32;;;;;;;28.04;88.69;100305.25;5085686;28;20201;-71
2022/08/09 04:31:35;;;;;;;7.63;6.20;;;;;;;28.52;87.51;100304.44;5082332;28;20203;-71
2022/08/09 04:34:02;;;;;;;8.00;6.03;;;;;;;29.00;83.45;100311.50;5072508;28;20545;-71
2022/08/09 04:36:31;;;;;;;6.13;5.53;;;;;;;29.63;79.64;100322.09;5053848;28;20214;-71
2022/08/09 04:39:03;;;;;;;8.35;5.53;;;;;;;29.91;76.09;100306.16;5072350;28;20226;-72
2022/08/09 04:41:31;;;;;;;11.07;5.90;;;;;;;29.66;73.94;100256.91;5073337;28;20194;-72
2022/08/09 04:43:58;;;;;;;7.80;5.28;;;;;;;30.51;71.65;100327.38;5088230;28;20204;-73
2022/08/09 04:46:24;;;;;;;11.45;5.57;;;;;;;30.84;68.68;100329.72;5055212;28;20202;-73
2022/08/09 04:48:51;;;;;;;10.52;5.07;;;;;;;31.28;66.14;100335.75;5091762;28;20202;-73
2022/08/09 04:51:18;;;;;;;5.55;4.72;;;;;;;31.68;62.85;100325.91;5035327;28;20724;-73
2022/08/09 04:53:45;;;;;;;5.97;5.18;;;;;;;31.79;60.83;100328.72;5080848;28;20205;-73
2022/08/09 04:56:13;;;;;;;8.43;4.80;;;;;;;31.73;59.76;100336.31;5085020;28;20202;-73
2022/08/09 04:58:40;;;;;;;8.30;4.90;;;;;;;31.32;60.23;100331.06;5087800;28;20226;-72
2022/08/09 05:01:07;;;;;;;7.20;4.90;;;;;;;30.31;63.63;100325.09;5078564;28;20220;-73
2022/08/09 05:03:34;;;;;;;6.43;5.00;;;;;;;30.27;65.85;100334.25;5057300;28;20258;-72
2022/08/09 05:06:00;;;;;;;5.43;4.82;;;;;;;29.86;67.36;100318.06;5078319;28;20210;-74
2022/08/09 05:08:27;;;;;;;11.13;5.28;;;;;;;30.04;67.83;100329.47;5070365;28;20711;-72
2022/08/09 05:10:54;;;;;;;7.70;4.93;;;;;;;30.23;66.85;100332.72;5076272;28;20201;-73
2022/08/09 05:13:22;;;;;;;10.68;5.38;;;;;;;30.08;66.35;100328.31;5067189;28;20221;-72
2022/08/09 05:15:49;;;;;;;12.30;5.70;;;;;;;30.26;65.52;100322.69;5062669;28;20712;-73
2022/08/09 05:18:16;;;;;;;8.00;4.85;;;;;;;30.69;64.06;100331.56;5085038;28;20225;-73
2022/08/09 05:20:43;;;;;;;6.97;4.80;;;;;;;30.25;65.09;100328.16;5064193;28;20216;-73
2022/08/09 05:23:10;;;;;;;9.07;4.97;;;;;;;30.71;63.05;100332.34;5062183;28;20214;-75
2022/08/09 05:25:36;;;;;;;11.10;5.10;;;;;;;30.78;60.70;100295.31;5071047;28;20209;-74
2022/08/09 05:28:04;;;;;;;12.85;5.53;;;;;;;30.60;62.33;100299.19;5035230;28;20210;-78
2022/08/09 05:30:33;;;;;;;8.50;5.00;;;;;;;30.87;62.05;100335.75;5053864;28;20195;-76
2022/08/09 05:33:00;;;;;;;15.05;5.22;;;;;;;30.80;62.43;100339.78;5070321;28;20205;-76
2022/08/09 05:35:27;;;;;;;14.35;5.50;;;;;;;30.91;61.75;100339.94;5075372;28;20725;-76
2022/08/09 05:37:54;;;;;;;9.13;5.20;;;;;;;30.45;63.25;100347.38;5036642;28;20209;-76
2022/08/09 05:40:21;;;;;;;8.13;4.90;;;;;;;29.91;65.89;100332.03;5070658;28;20210;-77
2022/08/09 05:42:48;;;;;;;8.93;5.50;;;;;;;29.74;68.60;100346.38;5072325;28;20205;-77
2022/08/09 05:45:15;;;;;;;14.20;5.28;;;;;;;29.96;68.07;100336.16;5072146;28;20709;-76
2022/08/09 05:47:43;;;;;;;10.90;5.32;;;;;;;30.15;66.90;100345.72;5081310;28;20206;-76
2022/08/09 05:50:10;;;;;;;10.32;5.30;;;;;;;30.05;67.78;100344.56;5071992;28;20205;-75
2022/08/09 05:52:37;;;;;;;10.00;5.10;;;;;;;29.80;69.86;100347.81;5071978;28;20198;-77
2022/08/09 05:55:05;;;;;;;10.70;6.03;;;;;;;30.08;69.58;100349.72;5071960;28;20210;-79
2022/08/09 05:57:32;;;;;;;7.70;6.93;;;;;;;29.54;73.20;100357.38;5072684;28;20205;-76
2022/08/09 05:59:58;;;;;;;7.72;6.93;;;;;;;29.47;74.22;100329.28;5022337;28;20246;-75
2022/08/09 06:02:25;;;;;;;17.70;6.22;;;;;;;29.60;74.32;100361.53;5035791;28;20757;-77
2022/08/09 06:04:53;;;;;;;7.38;5.47;;;;;;;29.74;73.74;100345.53;5063800;28;20213;-77
2022/08/09 06:07:20;;;;;;;8.68;6.00;;;;;;;28.90;78.56;100353.03;5052684;28;20318;-78
2022/08/09 06:09:47;;;;;;;6.53;5.60;;;;;;;28.88;79.40;100338.94;5071374;28;20256;-77
2022/08/09 06:12:14;;;;;;;12.35;6.03;;;;;;;28.82;81.56;100357.09;5070639;28;20210;-76
2022/08/09 06:14:41;;;;;;;13.77;6.22;;;;;;;28.58;83.67;100351.25;5071399;28;20400;-75
2022/08/09 06:17:07;;;;;;;10.50;6.28;;;;;;;28.82;84.12;100365.97;5035460;28;20207;-75
2022/08/09 06:19:34;;;;;;;7.60;6.78;;;;;;;28.34;88.64;100344.59;5057583;28;20770;-76
2022/08/09 06:22:03;;;;;;;8.25;6.88;;;;;;;28.94;91.49;100359.06;5071266;28;20210;-77
2022/08/09 06:24:29;;;;;;;15.88;6.97;;;;;;;29.04;89.88;100371.81;5071059;28;20202;-75
2022/08/09 06:26:56;;;;;;;7.75;6.43;;;;;;;28.95;86.02;100367.00;5071096;28;20218;-76
2022/08/09 06:29:24;;;;;;;8.07;5.28;;;;;;;28.77;87.43;100360.03;5071151;28;20911;-80
2022/08/09 06:31:50;;;;;;;7.25;6.43;;;;;;;28.81;86.63;100358.03;5071217;28;20206;-74
2022/08/09 06:34:17;;;;;;;15.77;6.07;;;;;;;28.86;86.75;100361.34;5071099;28;20210;-75
2022/08/09 06:36:44;;;;;;;6.13;5.50;;;;;;;28.53;87.04;100364.00;5071341;28;20237;-79
2022/08/09 06:39:12;;;;;;;8.30;5.97;;;;;;;28.88;86.88;100360.28;5070994;28;20241;-79
2022/08/09 06:41:39;;;;;;;7.28;6.32;;;;;;;28.79;86.42;100355.44;5070667;28;20555;-77
2022/08/09 06:44:06;;;;;;;14.82;5.97;;;;;;;28.47;87.87;100353.66;5070058;28;20290;-78
2022/08/09 06:46:33;;;;;;;7.38;6.20;;;;;;;28.71;89.00;100336.34;5070251;28;20203;-77
2022/08/09 06:49:00;;;;;;;6.65;6.05;;;;;;;28.62;88.11;100355.50;5051372;28;20206;-76
2022/08/09 06:51:27;;;;;;;8.48;5.55;;;;;;;28.51;87.34;100333.88;5070111;28;20202;-75
2022/08/09 06:53:54;;;;;;;6.78;6.13;;;;;;;28.47;90.52;100353.66;5069882;28;20234;-77
2022/08/09 06:56:22;;;;;;;6.82;5.82;;;;;;;28.71;86.68;100347.03;5069962;28;20687;-77
2022/08/09 06:58:49;;;;;;;6.00;5.50;;;;;;;28.80;86.34;100349.16;5070020;28;20234;-76
2022/08/09 07:01:16;;;;;;;6.85;5.63;;;;;;;28.78;83.71;100350.22;5069966;28;20218;-76
2022/08/09 07:03:43;;;;;;;6.20;5.60;;;;;;;28.81;83.64;100334.88;5050718;28;20590;-77
2022/08/09 07:06:10;;;;;;;6.95;6.30;;;;;;;29.11;82.83;100328.75;5056810;28;20629;-78
2022/08/09 07:08:36;;;;;;;8.48;5.85;;;;;;;29.08;81.89;100339.59;5050324;28;20195;-76
2022/08/09 07:11:03;;;;;;;6.65;5.28;;;;;;;28.96;82.08;100347.38;5014874;28;20207;-76
2022/08/09 07:13:32;;;;;;;5.97;5.38;;;;;;;28.72;84.01;100338.03;5050360;28;20634;-77
2022/08/09 07:15:58;;;;;;;8.80;5.43;;;;;;;28.85;82.41;100347.13;5054845;28;20199;-76
2022/08/09 07:18:25;;;;;;;10.23;5.82;;;;;;;29.22;81.22;100345.88;5070460;28;20202;-76
2022/08/09 07:20:52;;;;;;;10.63;5.80;;;;;;;29.27;80.23;100346.50;5070199;28;20230;-77
2022/08/09 07:23:19;;;;;;;7.22;5.88;;;;;;;29.43;76.67;100349.16;5070049;28;20210;-77
2022/08/09 07:25:46;;;;;;;6.30;5.55;;;;;;;29.57;78.16;100349.22;5070330;28;20217;-78
2022/08/09 07:28:13;;;;;;;11.27;6.00;;;;;;;29.71;76.24;100335.88;5070617;28;20198;-77
2022/08/09 07:30:41;;;;;;;6.00;5.47;;;;;;;29.63;77.44;100335.47;5056853;28;20210;-77
2022/08/09 07:33:08;;;;;;;6.40;5.50;;;;;;;30.28;75.48;100352.03;5055937;28;20206;-77
2022/08/09 07:35:34;;;;;;;7.53;5.30;;;;;;;30.54;72.78;100364.66;5069058;28;20286;-78
2022/08/09 07:38:01;;;;;;;5.90;5.30;;;;;;;30.70;70.99;100360.09;5065464;28;20207;-78
2022/08/09 07:40:28;;;;;;;9.35;5.90;;;;;;;30.33;71.14;100353.47;5069562;28;20845;-77
2022/08/09 07:42:57;;;;;;;7.95;6.25;;;;;;;30.45;69.39;100360.78;5067037;28;20686;-78
2022/08/09 07:45:28;;;;;;;6.45;5.85;;;;;;;30.37;69.37;100295.25;5066397;28;20214;-78
2022/08/09 07:47:58;;;;;;;8.73;6.32;;;;;;;30.17;70.57;100359.88;5068698;28;20241;-77
2022/08/09 07:50:27;;;;;;;7.50;6.45;;;;;;;30.11;73.42;100360.25;5069276;28;20221;-76
2022/08/09 07:52:54;;;;;;;8.80;6.97;;;;;;;30.41;71.00;100358.34;5055907;28;20290;-78
2022/08/09 07:55:22;;;;;;;10.55;6.22;;;;;;;30.73;69.19;100361.69;5051028;28;20664;-79
2022/08/09 07:57:49;;;;;;;7.95;7.22;;;;;;;30.27;68.58;100359.19;5059093;28;20272;-76
2022/08/09 08:00:17;;;;;;;11.35;7.05;;;;;;;30.61;68.25;100366.00;5052706;28;20215;-78
2022/08/09 08:02:44;;;;;;;6.80;6.07;;;;;;;30.61;65.93;100355.28;5053620;28;20199;-77
2022/08/09 08:05:12;;;;;;;10.40;5.85;;;;;;;30.49;67.82;100358.75;5053505;28;20210;-77
2022/08/09 08:07:39;;;;;;;9.57;6.20;;;;;;;30.71;65.24;100352.91;5049762;28;20594;-78
2022/08/09 08:10:07;;;;;;;8.80;6.07;;;;;;;30.23;67.60;100322.03;5047388;28;20207;-78
2022/08/09 08:12:34;;;;;;;9.77;6.38;;;;;;;30.64;66.57;100344.41;5061118;28;20199;-77
2022/08/09 08:15:01;;;;;;;10.20;5.93;;;;;;;30.53;66.40;100336.19;5066706;28;20210;-76
2022/08/09 08:17:27;;;;;;;6.63;5.88;;;;;;;30.55;66.89;100354.81;5066474;28;20210;-77
2022/08/09 08:19:54;;;;;;;6.47;5.78;;;;;;;30.16;67.56;100323.34;5069686;28;20230;-77
2022/08/09 08:22:22;;;;;;;12.63;5.57;;;;;;;30.22;67.48;100344.38;5069534;28;20644;-77
2022/08/09 08:24:54;;;;;;;7.35;5.63;;;;;;;30.79;66.03;100342.53;5069555;28;20202;-77
2022/08/09 08:27:21;;;;;;;7.28;5.53;;;;;;;30.97;64.18;100344.94;5069747;28;20198;-77
2022/08/09 08:29:48;;;;;;;14.85;5.68;;;;;;;30.81;62.81;100336.16;5066259;28;20194;-77
2022/08/09 08:32:15;;;;;;;6.03;5.43;;;;;;;30.81;64.23;100335.28;5056696;28;20210;-77
2022/08/09 08:34:42;;;;;;;6.75;5.10;;;;;;;30.67;63.52;100285.31;5048912;28;20667;-77
2022/08/09 08:37:09;;;;;;;5.93;5.25;;;;;;;30.97;63.25;100339.56;5053205;28;20246;-76
2022/08/09 08:39:37;;;;;;;6.60;5.15;;;;;;;30.56;63.79;100335.13;5053184;28;20717;-77
2022/08/09 08:42:04;;;;;;;6.20;5.60;;;;;;;30.90;62.92;100329.31;5050964;28;20199;-78
2022/08/09 08:44:35;;;;;;;11.13;5.55;;;;;;;30.71;64.27;100324.31;5050790;28;20191;-78
2022/08/09 08:47:03;;;;;;;9.40;5.47;;;;;;;30.81;64.73;100325.44;5053097;28;20203;-78
2022/08/09 08:49:30;;;;;;;8.90;5.40;;;;;;;31.07;62.29;100325.59;5067119;28;20211;-77
2022/08/09 08:51:58;;;;;;;6.47;5.10;;;;;;;31.37;61.24;100321.72;5058983;28;20191;-78
2022/08/09 08:54:25;;;;;;;7.47;5.35;;;;;;;31.29;59.71;100320.50;5055699;28;20216;-77
2022/08/09 08:56:54;;;;;;;6.40;4.75;;;;;;;31.31;59.53;100318.59;5058546;28;20202;-77
2022/08/09 08:59:21;;;;;;;6.03;4.50;;;;;;;30.79;58.85;100322.00;5067867;28;20222;-78
2022/08/09 09:01:50;;;;;;;4.90;4.50;;;;;;;31.05;58.71;100327.50;5063713;28;20209;-78
2022/08/09 09:04:19;;;;;;;7.15;4.47;;;;;;;31.16;58.46;100314.25;5072690;28;20199;-77
2022/08/09 09:06:48;;;;;;;10.02;5.00;;;;;;;31.34;58.22;100297.81;5072685;28;20194;-78
2022/08/09 09:09:17;;;;;;;6.15;4.57;;;;;;;31.30;58.57;100319.56;5022844;28;20199;-77
2022/08/09 09:11:44;;;;;;;5.57;4.43;;;;;;;31.20;59.22;100315.78;5072623;28;20251;-77
2022/08/09 09:14:15;;;;;;;9.05;4.88;;;;;;;31.26;58.84;100323.41;5072482;28;20931;-74
2022/08/09 09:16:42;;;;;;;6.10;5.50;;;;;;;31.26;57.97;100310.88;5072328;28;20567;-78
2022/08/09 09:19:11;;;;;;;7.07;5.13;;;;;;;31.06;58.54;100289.03;5072482;28;20194;-76
2022/08/09 09:22:01;;;;;;;12.18;4.85;;;;;;;31.22;59.93;100308.47;5058506;28;20190;-78
2022/08/09 09:24:30;;;;;;;5.72;5.15;;;;;;;31.60;57.37;100298.78;5072430;28;20662;-77
2022/08/09 09:26:58;;;;;;;6.10;5.10;;;;;;;31.77;56.59;100295.78;5072681;28;20190;-75
2022/08/09 09:29:32;;;;;;;5.00;4.55;;;;;;;32.13;57.08;100291.50;5072488;28;20191;-76
2022/08/09 09:31:59;;;;;;;12.02;5.10;;;;;;;31.70;56.25;100262.31;5072341;28;20562;-76
2022/08/09 09:34:27;;;;;;;4.97;4.63;;;;;;;32.00;56.74;100283.44;5072054;28;20205;-73
2022/08/09 09:36:54;;;;;;;6.63;5.00;;;;;;;31.86;55.87;100279.03;5071864;28;20250;-76
2022/08/09 09:39:22;;;;;;;9.23;4.50;;;;;;;32.08;55.06;100290.97;5072234;28;20202;-76
2022/08/09 09:41:50;;;;;;;6.72;5.00;;;;;;;31.96;53.93;100269.38;5072229;28;20202;-77
2022/08/09 09:44:24;;;;;;;5.53;4.53;;;;;;;32.24;54.53;100283.56;5052743;28;20202;-77
2022/08/09 09:46:56;;;;;;;8.07;4.82;;;;;;;32.52;52.72;100260.94;5036271;28;20202;-78
2022/08/09 09:49:24;;;;;;;8.18;4.50;;;;;;;31.69;54.22;100274.00;5071194;28;20717;-77
2022/08/09 09:52:01;;;;;;;9.85;4.82;;;;;;;32.13;53.16;100278.09;5035853;28;20190;-74
2022/08/09 09:54:35;;;;;;;5.38;4.90;;;;;;;32.22;53.14;100270.25;5035880;28;20202;-73
2022/08/09 09:57:13;;;;;;;5.32;4.82;;;;;;;32.39;53.17;100274.41;5071333;28;20670;-77
2022/08/09 09:59:40;;;;;;;5.53;5.13;;;;;;;32.48;54.18;100246.03;5071298;28;20213;-78
2022/08/09 10:02:09;;;;;;;10.32;5.03;;;;;;;32.71;52.24;100250.63;5071443;28;20213;-77
2022/08/09 10:04:36;;;;;;;6.03;5.10;;;;;;;32.26;51.72;100206.47;5070943;28;20244;-73
2022/08/09 10:07:03;;;;;;;5.30;4.90;;;;;;;32.62;51.31;100256.66;5071053;28;20612;-73
2022/08/09 10:09:46;;;;;;;6.95;4.95;;;;;;;32.85;51.12;100245.06;5052005;28;20217;-73
2022/08/09 10:12:23;;;;;;;5.85;4.38;;;;;;;32.45;50.71;100244.44;5070815;28;20255;-77
2022/08/09 10:14:51;;;;;;;5.43;5.03;;;;;;;32.66;51.11;100248.25;5071034;28;20195;-78
2022/08/09 10:17:21;;;;;;;10.27;5.68;;;;;;;32.48;51.01;100232.59;5071015;28;20490;-77
2022/08/09 10:19:48;;;;;;;5.25;4.75;;;;;;;32.34;51.06;100247.03;5035565;28;20713;-77
2022/08/09 10:22:15;;;;;;;8.60;5.53;;;;;;;32.66;51.18;100244.72;5070988;28;20205;-78
2022/08/09 10:24:42;;;;;;;6.28;4.80;;;;;;;32.59;50.18;100177.16;5070548;28;20202;-77
2022/08/09 10:27:09;;;;;;;12.50;4.93;;;;;;;33.11;48.79;100237.75;5070620;28;20210;-78
2022/08/09 10:29:37;;;;;;;8.10;4.90;;;;;;;33.35;48.79;100234.06;5070893;28;20202;-77
2022/08/09 10:32:04;;;;;;;10.80;4.32;;;;;;;33.29;46.81;100215.69;5073628;28;20284;-76
2022/08/09 10:34:33;;;;;;;13.88;4.65;;;;;;;33.40;46.77;100225.63;5070399;28;20198;-77
2022/08/09 10:37:01;;;;;;;4.45;4.10;;;;;;;33.13;47.28;100217.88;5070341;28;20252;-78
2022/08/09 10:39:28;;;;;;;6.82;4.80;;;;;;;33.59;46.11;100225.94;5051812;28;20198;-78
2022/08/09 10:41:55;;;;;;;8.30;4.75;;;;;;;33.63;45.94;100224.75;5070605;28;20454;-78
2022/08/09 10:44:29;;;;;;;6.65;4.57;;;;;;;33.68;46.85;100222.53;5070544;28;20210;-78
2022/08/09 10:47:22;;;;;;;5.82;4.03;;;;;;;33.89;44.72;100220.84;5070391;28;20604;-77
2022/08/09 10:50:02;;;;;;;13.27;4.20;;;;;;;33.86;43.49;100199.56;5052635;28;20202;-76
2022/08/09 10:52:56;;;;;;;9.25;4.05;;;;;;;34.41;42.03;100216.69;5034917;28;20197;-76
2022/08/09 10:55:25;;;;;;;3.88;3.67;;;;;;;34.47;41.09;100216.16;5070011;28;20204;-76
2022/08/09 10:57:53;;;;;;;6.88;3.72;;;;;;;34.56;40.99;100218.13;5069597;28;20190;-77
2022/08/09 11:00:42;;;;;;;5.85;3.97;;;;;;;34.40;41.19;100200.63;5070324;28;20222;-77
2022/08/09 11:03:23;;;;;;;11.70;4.30;;;;;;;34.19;41.05;100203.25;5027606;28;20195;-77
2022/08/09 11:06:20;;;;;;;8.80;4.40;;;;;;;34.74;40.74;100197.78;5011270;28;20203;-77
2022/08/09 11:08:48;;;;;;;7.32;3.78;;;;;;;35.04;38.71;100193.47;4978586;28;20227;-77
2022/08/09 11:11:16;;;;;;;10.05;3.97;;;;;;;35.26;38.46;100193.38;5027650;28;20729;-77
2022/08/09 11:13:43;;;;;;;4.63;3.90;;;;;;;35.08;37.93;100173.34;5027414;28;20278;-77
2022/08/09 11:16:35;;;;;;;5.55;3.83;;;;;;;35.21;34.43;100184.84;5027539;28;20746;-75
2022/08/09 11:19:03;;;;;;;4.22;3.10;;;;;;;35.25;33.39;100170.09;5027109;28;20206;-77
2022/08/09 11:21:57;;;;;;;3.90;2.90;;;;;;;34.74;33.80;100181.59;5027332;28;20231;-77
2022/08/09 11:24:24;;;;;;;3.45;3.03;;;;;;;34.87;33.85;100185.94;5027563;28;20743;-78
2022/08/09 11:26:51;;;;;;;3.65;3.30;;;;;;;35.00;35.34;100181.22;5027261;28;20195;-78
2022/08/09 11:29:53;;;;;;;5.57;3.25;;;;;;;35.10;33.01;100172.25;5027371;28;20202;-78
2022/08/09 11:32:49;;;;;;;5.55;2.75;;;;;;;34.93;31.36;100174.63;5027692;28;20233;-78